createdAt,value
2018-12-31T00:00:03.188Z,90.70
2018-12-31T00:02:41.220Z,91.30
2018-12-31T00:05:19.043Z,91.10
2018-12-31T00:07:55.720Z,90.50
2018-12-31T00:10:39.300Z,91.40
2018-12-31T00:16:20.191Z,91.80
2018-12-31T00:19:09.799Z,91.70
2018-12-31T00:25:12.971Z,91.60
2018-12-31T00:27:49.085Z,92.70
2018-12-31T00:30:36.025Z,92.10
2018-12-31T00:39:20.352Z,91.50
2018-12-31T00:45:15.833Z,91.40
2018-12-31T01:03:20.853Z,93.90
2018-12-31T01:06:00.587Z,94.10
2018-12-31T01:08:35.597Z,94.00
2018-12-31T01:11:10.718Z,93.20
2018-12-31T01:13:47.141Z,93.90
2018-12-31T01:16:23.163Z,94.00
2018-12-31T01:18:59.903Z,93.90
2018-12-31T01:21:39.387Z,94.40
2018-12-31T01:24:14.839Z,94.10
2018-12-31T01:26:49.926Z,93.60
2018-12-31T01:29:26.329Z,94.60
2018-12-31T01:32:01.224Z,94.90
2018-12-31T01:34:38.621Z,94.80
2018-12-31T01:41:17.254Z,95.40
2018-12-31T01:43:56.466Z,96.40
2018-12-31T01:46:31.631Z,95.50
2018-12-31T01:49:06.570Z,96.50
2018-12-31T01:51:41.522Z,97.50
2018-12-31T01:54:17.976Z,96.50
2018-12-31T01:56:59.635Z,98.60
2018-12-31T01:59:35.236Z,99.10
2018-12-31T02:02:13.301Z,99.10
2018-12-31T02:04:49.523Z,99.80
2018-12-31T02:07:26.607Z,98.20
2018-12-31T02:10:01.986Z,97.80
2018-12-31T02:12:37.240Z,98.00
2018-12-31T02:15:12.767Z,99.10
2018-12-31T02:17:47.664Z,98.90
2018-12-31T02:20:22.928Z,98.70
2018-12-31T02:22:59.041Z,98.60
2018-12-31T02:25:34.400Z,98.20
2018-12-31T02:28:11.654Z,97.90
2018-12-31T02:30:47.494Z,98.70
2018-12-31T02:33:22.901Z,99.00
2018-12-31T02:35:57.837Z,98.30
2018-12-31T02:38:32.887Z,98.50
2018-12-31T02:41:08.217Z,98.50
2018-12-31T02:43:44.286Z,97.60
2018-12-31T02:46:21.190Z,98.10
2018-12-31T02:48:56.480Z,97.50
2018-12-31T02:51:29.254Z,97.70
2018-12-31T02:54:04.949Z,97.50
2018-12-31T02:56:41.508Z,97.50
2018-12-31T02:59:16.247Z,97.90
2018-12-31T03:01:51.101Z,98.20
2018-12-31T03:04:26.219Z,97.70
2018-12-31T03:07:02.304Z,98.70
2018-12-31T03:09:36.914Z,99.10
2018-12-31T03:12:12.401Z,97.70
2018-12-31T03:14:47.168Z,98.50
2018-12-31T03:17:28.857Z,98.90
2018-12-31T03:20:07.847Z,98.30
2018-12-31T03:22:42.562Z,97.60
2018-12-31T03:25:18.350Z,98.00
2018-12-31T03:27:54.188Z,99.00
2018-12-31T03:30:30.304Z,98.90
2018-12-31T03:33:04.965Z,97.90
2018-12-31T03:35:40.149Z,99.90
2018-12-31T03:38:15.089Z,99.90
2018-12-31T03:40:50.127Z,98.30
2018-12-31T03:43:26.080Z,98.40
2018-12-31T03:46:01.503Z,99.80
2018-12-31T03:48:40.181Z,99.50
2018-12-31T03:51:17.031Z,98.70
2018-12-31T03:53:52.394Z,98.90
2018-12-31T03:56:27.555Z,99.20
2018-12-31T03:59:02.663Z,98.80
2018-12-31T04:01:35.569Z,98.90
2018-12-31T04:04:11.265Z,98.50
2018-12-31T04:06:46.492Z,99.10
2018-12-31T04:09:21.730Z,98.70
2018-12-31T04:11:57.452Z,99.00
2018-12-31T04:14:32.894Z,98.60
2018-12-31T04:17:09.142Z,98.80
2018-12-31T04:19:44.082Z,97.60
2018-12-31T04:22:17.886Z,98.30
2018-12-31T04:24:52.757Z,98.40
2018-12-31T04:27:28.646Z,99.20
2018-12-31T04:30:06.755Z,98.50
2018-12-31T04:32:46.341Z,98.70
2018-12-31T04:35:21.757Z,98.00
2018-12-31T04:38:07.573Z,98.80
2018-12-31T04:40:41.104Z,99.10
2018-12-31T04:43:16.020Z,98.80
2018-12-31T04:45:48.967Z,98.30
2018-12-31T04:51:22.122Z,96.80
2018-12-31T04:53:58.411Z,97.10
2018-12-31T04:56:41.923Z,97.70
2018-12-31T04:59:14.213Z,98.00
2018-12-31T05:04:41.642Z,98.40
2018-12-31T05:07:11.136Z,97.70
2018-12-31T05:09:47.043Z,96.80
2018-12-31T05:12:16.276Z,96.80
2018-12-31T05:14:45.510Z,97.10
2018-12-31T05:17:27.807Z,97.70
2018-12-31T05:20:15.413Z,96.50
2018-12-31T05:22:50.663Z,96.60
2018-12-31T05:28:25.754Z,97.40
2018-12-31T05:33:54.855Z,97.40
2018-12-31T05:36:46.011Z,97.60
2018-12-31T05:39:21.392Z,97.70
2018-12-31T05:41:55.939Z,97.10
2018-12-31T05:47:24.841Z,97.00
2018-12-31T05:49:54.157Z,97.80
2018-12-31T05:52:36.442Z,97.60
2018-12-31T05:55:11.883Z,98.30
2018-12-31T05:57:59.062Z,97.70
2018-12-31T06:00:44.312Z,97.80
2018-12-31T06:03:13.532Z,96.90
2018-12-31T06:05:42.744Z,95.80
2018-12-31T06:08:12.787Z,96.00
2018-12-31T06:10:42.017Z,96.20
2018-12-31T06:13:11.266Z,97.20
2018-12-31T06:15:40.467Z,97.70
2018-12-31T06:21:30.321Z,97.10
2018-12-31T06:26:57.761Z,95.60
2018-12-31T06:29:42.690Z,95.70
2018-12-31T06:32:13.380Z,96.10
2018-12-31T06:34:49.007Z,96.30
2018-12-31T06:37:23.225Z,97.10
2018-12-31T06:40:00.305Z,97.80
2018-12-31T06:42:51.225Z,96.80
2018-12-31T06:45:32.655Z,95.90
2018-12-31T06:48:02.846Z,96.20
2018-12-31T06:50:32.026Z,96.20
2018-12-31T06:58:58.001Z,92.80
2018-12-31T07:04:24.725Z,93.30
2018-12-31T07:06:57.397Z,94.50
2018-12-31T07:12:35.614Z,93.90
2018-12-31T07:18:08.849Z,93.50
2018-12-31T07:20:43.513Z,93.50
2018-12-31T07:23:18.475Z,93.00
2018-12-31T07:26:10.731Z,91.50
2018-12-31T07:28:46.695Z,92.30
2018-12-31T07:31:19.386Z,92.70
2018-12-31T07:33:54.128Z,94.40
2018-12-31T07:36:28.290Z,95.40
2018-12-31T07:39:04.668Z,96.50
2018-12-31T07:41:40.090Z,96.10
2018-12-31T07:44:14.633Z,94.90
2018-12-31T07:46:51.179Z,95.80
2018-12-31T07:52:24.346Z,95.60
2018-12-31T07:55:01.535Z,93.70
2018-12-31T07:57:34.878Z,94.70
2018-12-31T08:00:10.053Z,94.90
2018-12-31T08:02:54.223Z,95.80
2018-12-31T08:05:23.399Z,95.50
2018-12-31T08:07:56.210Z,96.10
2018-12-31T08:13:37.924Z,96.90
2018-12-31T08:16:13.570Z,96.20
2018-12-31T08:18:50.204Z,95.80
2018-12-31T08:21:28.858Z,94.50
2018-12-31T08:23:58.036Z,94.90
2018-12-31T08:26:27.376Z,94.00
2018-12-31T08:28:56.538Z,94.00
2018-12-31T08:31:25.758Z,93.70
2018-12-31T08:33:54.997Z,93.60
2018-12-31T08:36:31.562Z,92.80
2018-12-31T08:39:00.767Z,93.40
2018-12-31T08:41:29.984Z,93.60
2018-12-31T08:43:59.745Z,93.60
2018-12-31T08:46:29.985Z,93.60
2018-12-31T08:48:59.177Z,93.60
2018-12-31T08:51:32.232Z,93.00
2018-12-31T08:54:01.410Z,93.70
2018-12-31T08:56:33.985Z,94.00
2018-12-31T08:59:09.047Z,94.50
2018-12-31T09:01:38.252Z,95.00
2018-12-31T09:04:07.450Z,94.50
2018-12-31T09:09:45.491Z,93.50
2018-12-31T09:12:20.131Z,94.20
2018-12-31T09:17:52.623Z,92.20
2018-12-31T09:20:25.691Z,92.70
2018-12-31T09:23:00.990Z,93.20
2018-12-31T09:25:37.503Z,92.30
2018-12-31T09:28:12.675Z,91.80
2018-12-31T09:30:49.663Z,90.30
2018-12-31T09:33:24.436Z,90.80
2018-12-31T09:35:59.310Z,91.20
2018-12-31T09:38:36.077Z,91.30
2018-12-31T09:41:10.832Z,91.80
2018-12-31T09:43:46.966Z,91.80
2018-12-31T09:46:21.231Z,92.20
2018-12-31T09:49:06.743Z,93.10
2018-12-31T09:51:42.177Z,93.30
2018-12-31T09:57:14.862Z,93.80
2018-12-31T09:59:52.203Z,93.60
2018-12-31T10:02:26.985Z,94.60
2018-12-31T10:05:01.862Z,95.40
2018-12-31T10:07:38.087Z,94.60
2018-12-31T10:10:12.642Z,94.30
2018-12-31T10:12:43.649Z,94.40
2018-12-31T10:15:18.210Z,93.90
2018-12-31T10:17:54.332Z,93.00
2018-12-31T10:20:29.252Z,91.40
2018-12-31T10:23:04.950Z,90.80
2018-12-31T10:25:40.449Z,90.40
2018-12-31T10:28:15.609Z,90.90
2018-12-31T10:30:52.147Z,88.20
2018-12-31T10:33:28.623Z,86.50
2018-12-31T10:36:04.094Z,88.40
2018-12-31T10:38:40.422Z,85.90
2018-12-31T10:41:14.035Z,80.80
2018-12-31T10:43:50.461Z,83.10
2018-12-31T10:46:27.651Z,85.20
2018-12-31T10:49:02.434Z,85.30
2018-12-31T10:51:38.906Z,82.80
2018-12-31T10:54:14.576Z,78.60
2018-12-31T10:56:50.839Z,79.40
2018-12-31T11:04:27.458Z,80.90
2018-12-31T11:07:02.918Z,76.70
2018-12-31T11:09:38.294Z,77.10
2018-12-31T11:12:13.696Z,75.90
2018-12-31T11:14:48.966Z,75.20
2018-12-31T11:17:25.620Z,74.80
2018-12-31T11:20:00.954Z,76.50
2018-12-31T11:22:35.906Z,81.80
2018-12-31T11:25:10.729Z,77.80
2018-12-31T11:27:43.642Z,81.80
2018-12-31T11:30:19.017Z,80.20
2018-12-31T11:32:53.957Z,80.20
2018-12-31T11:35:29.291Z,79.00
2018-12-31T11:38:04.951Z,73.80
2018-12-31T11:40:39.781Z,76.70
2018-12-31T11:43:12.671Z,72.90
2018-12-31T11:45:45.734Z,72.30
2018-12-31T11:48:21.290Z,74.20
2018-12-31T11:53:49.400Z,73.20
2018-12-31T11:56:31.329Z,72.40
2018-12-31T11:59:05.887Z,77.10
2018-12-31T12:01:40.658Z,77.30
2018-12-31T12:04:16.075Z,77.70
2018-12-31T12:06:55.923Z,76.20
2018-12-31T12:09:31.444Z,74.70
2018-12-31T12:12:10.170Z,73.20
2018-12-31T12:14:45.709Z,72.70
2018-12-31T12:17:22.305Z,74.70
2018-12-31T12:20:13.157Z,76.80
2018-12-31T12:23:00.691Z,75.70
2018-12-31T12:25:36.020Z,73.60
2018-12-31T12:28:16.045Z,76.10
2018-12-31T12:30:53.798Z,76.40
2018-12-31T12:33:26.644Z,72.80
2018-12-31T12:36:02.747Z,74.30
2018-12-31T12:38:39.258Z,72.70
2018-12-31T12:41:19.493Z,72.00
2018-12-31T12:43:54.413Z,69.30
2018-12-31T12:46:27.658Z,69.30
2018-12-31T12:49:03.190Z,69.50
2018-12-31T12:51:39.059Z,67.60
2018-12-31T12:54:14.763Z,67.40
2018-12-31T12:56:50.452Z,69.90
2018-12-31T12:59:26.916Z,70.80
2018-12-31T13:02:01.944Z,71.60
2018-12-31T13:04:37.082Z,71.50
2018-12-31T13:07:13.370Z,74.70
2018-12-31T13:09:52.286Z,75.40
2018-12-31T13:35:26.043Z,71.80
2018-12-31T13:38:02.091Z,75.00
2018-12-31T13:40:38.345Z,71.30
2018-12-31T13:43:20.074Z,69.60
2018-12-31T13:46:09.137Z,67.30
2018-12-31T13:48:49.778Z,69.50
2018-12-31T13:51:25.838Z,67.90
2018-12-31T13:54:03.545Z,70.80
2018-12-31T13:56:40.257Z,71.10
2018-12-31T13:59:15.973Z,74.00
2018-12-31T14:01:59.158Z,70.20
2018-12-31T14:07:16.649Z,69.40
2018-12-31T14:09:52.770Z,69.30
2018-12-31T14:12:31.204Z,73.00
2018-12-31T14:15:07.023Z,71.40
2018-12-31T14:17:43.155Z,72.00
2018-12-31T14:20:19.290Z,70.00
2018-12-31T14:22:53.976Z,70.10
2018-12-31T14:25:29.313Z,67.00
2018-12-31T14:28:07.798Z,67.70
2018-12-31T14:30:44.773Z,68.70
2018-12-31T14:33:20.588Z,66.90
2018-12-31T14:35:56.703Z,69.10
2018-12-31T14:38:32.054Z,70.90
2018-12-31T14:41:07.327Z,73.80
2018-12-31T14:43:42.840Z,75.40
2018-12-31T14:46:20.905Z,79.20
2018-12-31T14:48:57.977Z,81.50
2018-12-31T14:51:35.419Z,82.50
2018-12-31T14:54:14.587Z,83.40
2018-12-31T14:56:52.231Z,84.50
2018-12-31T14:59:30.001Z,86.30
2018-12-31T15:02:05.284Z,87.80
2018-12-31T15:04:40.917Z,86.80
2018-12-31T15:07:21.013Z,88.70
2018-12-31T15:13:31.120Z,89.10
2018-12-31T15:16:20.272Z,88.50
2018-12-31T15:22:28.842Z,87.80
2018-12-31T15:28:14.126Z,86.50
2018-12-31T15:31:04.020Z,87.70
2018-12-31T15:34:08.729Z,89.80
2018-12-31T15:37:08.662Z,90.30
2018-12-31T15:51:51.898Z,90.30
2018-12-31T16:02:29.263Z,88.00
2018-12-31T16:11:07.739Z,89.10
2018-12-31T17:37:42.689Z,99.20
2018-12-31T17:47:41.677Z,95.70
2018-12-31T17:56:36.089Z,94.10
2018-12-31T18:02:27.344Z,95.90
2018-12-31T18:05:09.281Z,95.70
2018-12-31T18:31:41.599Z,97.00
2018-12-31T18:34:42.161Z,98.50
2018-12-31T18:49:27.348Z,98.80
2018-12-31T19:07:18.751Z,99.30
2018-12-31T19:10:25.162Z,98.10
2018-12-31T19:13:01.034Z,96.30
2018-12-31T19:18:33.861Z,97.40
2018-12-31T19:39:27.992Z,95.90
2018-12-31T19:54:02.587Z,98.00
2018-12-31T20:20:28.082Z,96.40
2018-12-31T20:23:09.349Z,95.90
2018-12-31T20:25:55.957Z,95.40
2018-12-31T20:28:38.944Z,96.10
2018-12-31T20:31:31.527Z,95.80
2018-12-31T20:34:24.758Z,96.10
2018-12-31T20:40:00.890Z,94.30
2018-12-31T20:42:46.034Z,95.00
2018-12-31T21:24:58.174Z,94.40
2018-12-31T21:27:36.193Z,94.10
2018-12-31T21:33:10.509Z,95.00
2018-12-31T21:38:58.665Z,94.80
2018-12-31T21:44:34.547Z,93.30
2018-12-31T21:50:29.388Z,93.50
2018-12-31T22:54:07.994Z,94.40
2018-12-31T22:56:44.057Z,94.40
2018-12-31T22:59:22.594Z,93.90
2018-12-31T23:01:56.544Z,94.00
2018-12-31T23:07:29.805Z,92.70
2018-12-31T23:13:43.507Z,92.90
2018-12-31T23:40:43.219Z,91.80
2018-12-31T23:43:21.660Z,92.30
2018-12-31T23:45:58.524Z,93.00
2018-12-31T23:48:37.509Z,93.10
2018-12-31T23:51:14.542Z,91.70
2018-12-31T23:53:52.343Z,91.50
2018-12-31T23:56:29.146Z,92.40
2018-12-31T23:59:04.716Z,92.50
